Time;durP1;ratioP1;P1;durP2;ratioP2;P2;SDS_P1;SDS_P2;PMS_P1;PMS_P2;Temp;Humidity;BMP_temperature;BMP_pressure;BME280_temperature;BME280_humidity;BME280_pressure;Samples;Min_cycle;Max_cycle;Signal;HPM_P1;HPM_P2
2021/10/20 00:00:01;;;;;;;54.63;36.13;;;16.70;99.90;;;;;;5088334;28;20040;-75
2021/10/20 00:02:28;;;;;;;49.65;35.40;;;16.60;99.90;;;;;;5077143;28;20087;-75
2021/10/20 00:04:55;;;;;;;48.03;34.15;;;16.60;99.90;;;;;;5108432;28;20051;-75
2021/10/20 00:07:22;;;;;;;47.88;33.83;;;16.50;99.90;;;;;;5090240;28;20555;-78
2021/10/20 00:09:49;;;;;;;46.78;34.17;;;16.50;99.90;;;;;;5090394;28;20126;-78
2021/10/20 00:12:16;;;;;;;43.65;32.33;;;16.50;99.90;;;;;;5090096;28;20458;-77
2021/10/20 00:14:43;;;;;;;46.38;34.03;;;16.50;99.90;;;;;;5090145;28;20044;-76
2021/10/20 00:17:10;;;;;;;43.30;31.70;;;16.50;99.90;;;;;;5090088;28;20459;-77
2021/10/20 00:19:37;;;;;;;40.88;30.30;;;16.40;99.90;;;;;;5089554;28;20071;-77
2021/10/20 00:22:04;;;;;;;39.50;28.98;;;16.40;99.90;;;;;;5088317;28;20048;-77
2021/10/20 00:24:30;;;;;;;33.00;25.05;;;16.40;99.90;;;;;;5088762;28;20446;-76
2021/10/20 00:26:57;;;;;;;36.25;27.85;;;16.30;99.90;;;;;;5091419;28;20059;-79
2021/10/20 00:29:24;;;;;;;42.13;26.63;;;16.40;99.90;;;;;;5093977;28;20136;-78
2021/10/20 00:31:51;;;;;;;38.20;25.55;;;16.30;99.90;;;;;;5093170;28;20105;-77
2021/10/20 00:34:18;;;;;;;34.28;23.75;;;16.30;99.90;;;;;;5092280;28;20082;-76
2021/10/20 00:36:45;;;;;;;36.35;24.00;;;16.30;99.90;;;;;;5094159;28;20051;-78
2021/10/20 00:39:13;;;;;;;29.30;23.08;;;16.30;99.90;;;;;;5081619;28;20044;-77
2021/10/20 00:41:40;;;;;;;23.65;18.67;;;16.30;99.90;;;;;;5097461;28;20119;-77
2021/10/20 00:44:07;;;;;;;22.23;18.80;;;16.30;99.90;;;;;;5097410;28;20553;-78
2021/10/20 00:46:34;;;;;;;21.95;16.77;;;16.20;99.90;;;;;;5093807;28;20126;-78
2021/10/20 00:49:01;;;;;;;22.02;17.55;;;16.20;99.90;;;;;;5093270;28;20056;-81
2021/10/20 00:51:28;;;;;;;20.45;17.58;;;16.20;99.90;;;;;;5092304;28;20054;-81
2021/10/20 00:53:57;;;;;;;20.23;16.38;;;16.20;99.90;;;;;;5092309;28;20070;-81
2021/10/20 00:56:25;;;;;;;20.40;15.50;;;16.20;99.90;;;;;;5091411;28;20082;-79
2021/10/20 00:58:52;;;;;;;20.85;15.05;;;16.20;99.90;;;;;;5096489;28;20128;-79
2021/10/20 01:01:19;;;;;;;21.33;14.23;;;16.20;99.90;;;;;;5093316;28;20399;-81
2021/10/20 01:03:46;;;;;;;19.80;12.50;;;16.20;99.90;;;;;;5093334;28;20389;-79
2021/10/20 01:06:13;;;;;;;19.00;13.57;;;16.20;99.90;;;;;;5093195;28;20583;-77
2021/10/20 01:08:40;;;;;;;16.77;13.02;;;16.20;99.90;;;;;;5093139;28;20391;-79
2021/10/20 01:11:07;;;;;;;17.30;13.10;;;16.20;99.90;;;;;;5091858;28;20083;-79
2021/10/20 01:13:34;;;;;;;19.73;13.63;;;16.10;99.90;;;;;;5091854;28;20052;-78
2021/10/20 01:16:02;;;;;;;15.55;11.60;;;16.10;99.90;;;;;;5091424;28;20063;-77
2021/10/20 01:18:29;;;;;;;14.45;11.77;;;16.10;99.90;;;;;;5075409;28;20084;-77
2021/10/20 01:20:57;;;;;;;12.40;10.23;;;16.10;99.90;;;;;;5091639;28;20044;-77
2021/10/20 01:23:24;;;;;;;14.30;8.88;;;16.10;99.90;;;;;;5092040;28;20059;-78
2021/10/20 01:25:51;;;;;;;13.25;10.02;;;16.10;99.90;;;;;;5091578;28;20044;-79
2021/10/20 01:28:18;;;;;;;13.48;11.32;;;16.00;99.90;;;;;;5092790;28;20130;-79
2021/10/20 01:30:48;;;;;;;15.45;11.65;;;16.00;99.90;;;;;;5092835;28;20843;-78
2021/10/20 01:33:15;;;;;;;15.57;12.30;;;16.00;99.90;;;;;;5091067;28;20096;-78
2021/10/20 01:35:42;;;;;;;19.20;13.75;;;16.00;99.90;;;;;;5090814;28;20079;-79
2021/10/20 01:38:09;;;;;;;17.63;13.35;;;16.00;99.90;;;;;;5090401;28;20151;-77
2021/10/20 01:40:36;;;;;;;17.40;13.32;;;15.90;99.90;;;;;;5102481;28;20529;-77
2021/10/20 01:43:03;;;;;;;19.67;14.63;;;15.90;99.90;;;;;;5090907;28;20044;-79
2021/10/20 01:45:30;;;;;;;18.50;13.98;;;15.90;99.90;;;;;;5091540;28;20052;-78
2021/10/20 01:47:57;;;;;;;15.73;13.23;;;15.90;99.90;;;;;;5091029;28;20053;-78
2021/10/20 01:50:24;;;;;;;15.30;12.68;;;15.90;99.90;;;;;;5092076;28;20075;-79
2021/10/20 01:52:51;;;;;;;11.80;8.82;;;15.90;99.90;;;;;;5091827;28;20052;-78
2021/10/20 01:55:18;;;;;;;10.00;8.30;;;15.90;99.90;;;;;;5091388;28;20388;-78
2021/10/20 01:57:45;;;;;;;12.93;9.13;;;15.80;99.90;;;;;;5091635;28;20048;-77
2021/10/20 02:00:12;;;;;;;11.57;9.15;;;15.80;99.90;;;;;;5092388;28;20119;-79
2021/10/20 02:02:39;;;;;;;10.85;8.98;;;15.80;99.90;;;;;;5090758;28;20050;-79
2021/10/20 02:05:10;;;;;;;14.30;10.40;;;15.70;99.90;;;;;;5092294;28;20178;-78
2021/10/20 02:07:38;;;;;;;13.57;10.82;;;15.70;99.90;;;;;;5091899;28;20048;-77
2021/10/20 02:10:10;;;;;;;15.80;13.13;;;15.70;99.90;;;;;;5090037;28;20083;-80
2021/10/20 02:12:37;;;;;;;17.13;12.77;;;15.70;99.90;;;;;;5090854;28;20403;-80
2021/10/20 02:15:04;;;;;;;17.85;14.00;;;15.70;99.90;;;;;;5091452;28;20474;-80
2021/10/20 02:17:31;;;;;;;19.77;13.32;;;15.70;99.90;;;;;;5091990;28;20054;-80
2021/10/20 02:19:58;;;;;;;19.35;14.23;;;15.70;99.90;;;;;;5088669;28;20440;-80
2021/10/20 02:22:25;;;;;;;14.20;12.50;;;15.70;99.90;;;;;;5091089;28;20044;-78
2021/10/20 02:24:53;;;;;;;15.48;12.95;;;15.70;99.90;;;;;;5073573;28;20495;-79
2021/10/20 02:27:20;;;;;;;18.10;13.07;;;15.60;99.90;;;;;;5095528;28;20047;-76
2021/10/20 02:29:47;;;;;;;19.02;12.77;;;15.70;99.90;;;;;;5088796;28;20040;-80
2021/10/20 02:32:15;;;;;;;18.20;12.90;;;15.70;99.90;;;;;;5091515;28;20135;-81
2021/10/20 02:34:42;;;;;;;17.40;12.82;;;15.70;99.90;;;;;;5089873;28;20044;-81
2021/10/20 02:37:10;;;;;;;16.35;11.95;;;15.60;99.90;;;;;;5072977;28;20044;-79
2021/10/20 02:39:37;;;;;;;19.48;14.82;;;15.60;99.90;;;;;;5095790;28;20123;-80
2021/10/20 02:42:04;;;;;;;15.10;12.40;;;15.60;99.90;;;;;;5089762;28;20040;-79
2021/10/20 02:44:31;;;;;;;19.77;14.20;;;15.60;99.90;;;;;;5089813;28;20048;-80
2021/10/20 02:46:58;;;;;;;16.60;12.70;;;15.60;99.90;;;;;;5092750;28;20039;-79
2021/10/20 02:49:25;;;;;;;19.73;11.35;;;15.60;99.90;;;;;;5090985;28;20123;-80
2021/10/20 02:51:52;;;;;;;16.33;11.55;;;15.60;99.90;;;;;;5088661;28;20039;-79
2021/10/20 02:54:20;;;;;;;17.98;11.48;;;15.60;99.90;;;;;;5086168;28;20055;-78
2021/10/20 02:56:47;;;;;;;16.85;14.38;;;15.60;99.90;;;;;;5092554;28;20044;-77
2021/10/20 02:59:14;;;;;;;14.20;8.95;;;15.60;99.90;;;;;;5093800;28;20054;-77
2021/10/20 03:01:41;;;;;;;9.82;7.85;;;15.60;99.90;;;;;;5087472;28;20075;-77
2021/10/20 03:04:09;;;;;;;14.65;8.55;;;15.60;99.90;;;;;;5083751;28;20407;-78
2021/10/20 03:06:35;;;;;;;11.05;8.00;;;15.60;99.90;;;;;;5060991;28;20080;-76
2021/10/20 03:09:03;;;;;;;10.15;7.32;;;15.60;99.90;;;;;;5085428;28;20044;-78
2021/10/20 03:11:30;;;;;;;9.93;6.20;;;15.60;99.90;;;;;;5054625;28;20077;-76
2021/10/20 03:13:58;;;;;;;9.75;6.50;;;15.60;99.90;;;;;;5084967;28;20438;-79
2021/10/20 03:16:25;;;;;;;8.20;6.18;;;15.60;99.90;;;;;;5080718;28;20457;-78
2021/10/20 03:18:53;;;;;;;8.85;6.25;;;15.60;99.90;;;;;;5082401;28;20498;-78
2021/10/20 03:21:20;;;;;;;9.95;6.25;;;15.60;99.90;;;;;;5089554;28;20044;-74
2021/10/20 03:23:47;;;;;;;7.95;5.97;;;15.60;99.90;;;;;;5087214;28;20130;-76
2021/10/20 03:26:14;;;;;;;7.35;6.13;;;15.60;99.90;;;;;;5084063;28;20123;-77
2021/10/20 03:28:41;;;;;;;8.05;6.22;;;15.60;99.90;;;;;;5090372;28;20356;-77
2021/10/20 03:31:08;;;;;;;6.78;5.50;;;15.50;99.90;;;;;;5071580;28;20522;-76
2021/10/20 03:33:36;;;;;;;8.95;5.97;;;15.50;99.90;;;;;;5087360;28;20446;-77
2021/10/20 03:36:05;;;;;;;7.55;6.13;;;15.50;99.90;;;;;;5088865;28;20131;-78
2021/10/20 03:38:32;;;;;;;8.65;6.38;;;15.50;99.90;;;;;;5068489;28;20043;-78
2021/10/20 03:40:59;;;;;;;11.05;6.57;;;15.50;99.90;;;;;;5084923;28;20101;-77
2021/10/20 03:43:37;;;;;;;10.50;6.05;;;15.50;99.90;;;;;;5086452;28;20036;-77
2021/10/20 03:46:04;;;;;;;9.15;6.32;;;15.50;99.90;;;;;;5085787;28;20464;-78
2021/10/20 03:48:31;;;;;;;8.55;5.97;;;15.50;99.90;;;;;;5082683;28;20502;-78
2021/10/20 03:50:58;;;;;;;7.88;6.43;;;15.60;99.90;;;;;;5089096;28;20483;-78
2021/10/20 03:53:25;;;;;;;9.32;7.28;;;15.60;99.90;;;;;;5078061;28;20416;-78
2021/10/20 03:55:53;;;;;;;9.45;6.53;;;15.60;99.90;;;;;;5085598;28;20473;-76
2021/10/20 03:58:21;;;;;;;10.50;6.68;;;15.60;99.90;;;;;;5095264;28;20517;-75
2021/10/20 04:00:49;;;;;;;7.70;6.60;;;15.60;99.90;;;;;;5088467;28;20488;-76
2021/10/20 04:03:16;;;;;;;10.90;6.47;;;15.60;99.90;;;;;;5083348;28;20051;-75
2021/10/20 04:05:43;;;;;;;11.40;6.50;;;15.60;99.90;;;;;;5085027;28;20044;-78
2021/10/20 04:08:10;;;;;;;10.90;7.43;;;15.60;99.90;;;;;;5081778;28;20511;-76
2021/10/20 04:10:37;;;;;;;11.27;6.82;;;15.60;99.90;;;;;;5080954;28;20049;-76
2021/10/20 04:13:04;;;;;;;9.48;6.88;;;15.70;99.90;;;;;;5083383;28;20047;-75
2021/10/20 04:15:32;;;;;;;10.38;7.60;;;15.70;99.90;;;;;;5084469;28;20040;-76
2021/10/20 04:17:59;;;;;;;8.63;5.63;;;15.70;99.90;;;;;;5087983;28;20550;-74
2021/10/20 04:20:26;;;;;;;8.73;6.53;;;15.70;99.90;;;;;;5085034;28;20220;-75
2021/10/20 04:22:53;;;;;;;10.63;5.75;;;15.70;99.90;;;;;;5087722;28;20079;-75
2021/10/20 04:25:20;;;;;;;7.03;5.57;;;15.70;99.90;;;;;;5069745;28;20087;-75
2021/10/20 04:27:48;;;;;;;8.75;5.00;;;15.70;99.90;;;;;;5095853;28;20410;-75
2021/10/20 04:30:16;;;;;;;7.60;5.18;;;15.70;99.90;;;;;;5087722;28;20588;-77
2021/10/20 04:32:43;;;;;;;7.57;4.78;;;15.70;99.90;;;;;;5086525;28;20130;-78
2021/10/20 04:35:10;;;;;;;8.18;3.97;;;15.70;99.90;;;;;;5091243;28;20050;-78
2021/10/20 04:37:38;;;;;;;6.20;3.92;;;15.70;99.90;;;;;;5081554;28;20097;-80
2021/10/20 04:40:06;;;;;;;5.55;3.30;;;15.70;99.90;;;;;;5085448;28;20131;-79
2021/10/20 04:42:33;;;;;;;5.25;3.28;;;15.70;99.90;;;;;;5072000;28;20056;-78
2021/10/20 04:45:00;;;;;;;4.63;3.13;;;15.70;99.90;;;;;;5086289;28;20043;-80
2021/10/20 04:47:27;;;;;;;5.72;3.38;;;15.70;99.90;;;;;;5071220;28;20348;-80
2021/10/20 04:49:54;;;;;;;6.28;2.78;;;15.70;99.90;;;;;;5088705;28;20135;-80
2021/10/20 04:52:23;;;;;;;5.32;3.38;;;15.70;99.90;;;;;;5079617;28;20068;-78
2021/10/20 04:54:50;;;;;;;7.30;3.87;;;15.80;99.90;;;;;;5088532;28;20459;-79
2021/10/20 04:57:18;;;;;;;8.30;3.67;;;15.80;99.90;;;;;;5084026;28;20495;-77
2021/10/20 04:59:45;;;;;;;6.90;3.95;;;15.80;99.90;;;;;;5086788;28;20051;-79
2021/10/20 05:02:12;;;;;;;6.22;4.13;;;15.80;99.90;;;;;;5072891;28;20166;-78
2021/10/20 05:04:39;;;;;;;9.18;4.68;;;15.80;99.90;;;;;;5085827;28;20122;-75
2021/10/20 05:07:06;;;;;;;10.88;5.15;;;15.80;99.90;;;;;;5083394;28;20056;-80
2021/10/20 05:09:33;;;;;;;12.35;5.85;;;15.80;99.90;;;;;;5080713;28;20598;-79
2021/10/20 05:12:00;;;;;;;12.43;6.32;;;15.80;99.90;;;;;;5068290;28;20132;-77
2021/10/20 05:14:27;;;;;;;10.38;6.38;;;15.80;99.90;;;;;;5089918;28;20079;-77
2021/10/20 05:16:54;;;;;;;13.35;7.13;;;15.80;99.90;;;;;;5092916;28;20062;-76
2021/10/20 05:19:20;;;;;;;14.90;7.35;;;15.70;99.90;;;;;;5089381;28;20135;-76
2021/10/20 05:21:47;;;;;;;13.43;7.03;;;15.80;99.90;;;;;;5090014;28;20052;-74
2021/10/20 05:24:14;;;;;;;15.13;5.57;;;15.70;99.90;;;;;;5093213;28;20048;-75
2021/10/20 05:26:41;;;;;;;11.13;5.65;;;15.70;99.90;;;;;;5088603;28;20063;-78
2021/10/20 05:29:08;;;;;;;12.85;5.93;;;15.70;99.90;;;;;;5091529;28;20040;-78
2021/10/20 05:31:36;;;;;;;15.07;6.32;;;15.70;99.90;;;;;;5070434;28;20171;-78
2021/10/20 05:34:03;;;;;;;11.85;6.00;;;15.70;99.90;;;;;;5088281;28;20176;-77
2021/10/20 05:36:30;;;;;;;14.65;6.70;;;15.70;99.90;;;;;;5090071;28;20044;-77
2021/10/20 05:38:59;;;;;;;15.43;6.95;;;15.70;99.90;;;;;;5091405;28;20044;-76
2021/10/20 05:41:26;;;;;;;77.78;61.88;;;15.70;99.90;;;;;;5079717;28;20044;-74
2021/10/20 05:43:52;;;;;;;47.40;34.47;;;15.70;99.90;;;;;;5086556;28;20042;-71
2021/10/20 05:46:19;;;;;;;15.68;8.20;;;15.80;99.90;;;;;;5073853;28;20044;-72
2021/10/20 05:48:46;;;;;;;12.57;6.65;;;15.70;99.90;;;;;;5086021;28;20404;-68
2021/10/20 05:51:13;;;;;;;13.13;7.15;;;15.70;99.90;;;;;;5087007;28;20053;-72
2021/10/20 05:53:40;;;;;;;11.52;5.93;;;15.80;99.90;;;;;;5071817;28;20101;-72
2021/10/20 05:56:08;;;;;;;10.80;6.47;;;15.80;99.90;;;;;;5069742;28;20150;-80
2021/10/20 05:58:35;;;;;;;11.52;5.57;;;15.80;99.90;;;;;;5097927;28;20518;-76
2021/10/20 06:01:02;;;;;;;11.48;5.50;;;15.80;99.90;;;;;;5087045;28;20044;-83
2021/10/20 06:03:29;;;;;;;10.63;5.60;;;15.80;99.90;;;;;;5085776;28;20504;-76
2021/10/20 06:05:56;;;;;;;14.82;6.57;;;15.80;99.90;;;;;;5078635;28;20040;-80
2021/10/20 06:08:23;;;;;;;14.18;6.40;;;15.80;99.90;;;;;;5082365;28;20131;-80
2021/10/20 06:10:50;;;;;;;90.55;75.20;;;15.80;99.90;;;;;;5072674;28;20123;-78
2021/10/20 06:13:17;;;;;;;12.15;8.02;;;15.90;99.90;;;;;;5078812;28;20054;-78
2021/10/20 06:15:44;;;;;;;13.70;5.60;;;15.90;99.90;;;;;;5085484;28;20467;-79
2021/10/20 06:18:12;;;;;;;13.30;6.38;;;15.90;99.90;;;;;;5086852;28;20051;-77
2021/10/20 06:20:39;;;;;;;15.65;6.57;;;15.90;99.90;;;;;;5089873;28;20052;-69
2021/10/20 06:23:06;;;;;;;15.85;5.13;;;15.90;99.90;;;;;;5077989;28;20474;-69
2021/10/20 06:25:33;;;;;;;11.63;5.00;;;15.90;99.90;;;;;;5086763;28;20044;-68
2021/10/20 06:28:00;;;;;;;10.10;5.35;;;16.00;99.90;;;;;;5094886;28;20494;-67
2021/10/20 06:30:27;;;;;;;9.55;4.47;;;16.00;99.90;;;;;;5081108;28;20835;-66
2021/10/20 06:32:55;;;;;;;10.23;4.65;;;16.00;99.90;;;;;;5086271;28;20072;-66
2021/10/20 06:35:22;;;;;;;9.35;3.92;;;16.00;99.90;;;;;;5068335;28;20055;-66
2021/10/20 06:37:53;;;;;;;8.55;3.70;;;16.00;99.90;;;;;;5080788;28;20131;-66
2021/10/20 06:40:20;;;;;;;12.52;4.57;;;16.00;99.90;;;;;;5075378;28;20131;-67
2021/10/20 06:42:47;;;;;;;10.18;3.90;;;15.90;99.90;;;;;;5087011;28;20127;-66
2021/10/20 06:45:14;;;;;;;9.05;5.15;;;15.90;99.90;;;;;;5076662;28;20059;-65
2021/10/20 06:47:42;;;;;;;9.55;4.22;;;15.90;99.90;;;;;;5077195;28;20050;-67
2021/10/20 06:50:09;;;;;;;10.90;5.00;;;15.90;99.90;;;;;;5073132;28;20063;-66
2021/10/20 06:52:36;;;;;;;9.05;4.28;;;15.80;99.90;;;;;;5087232;28;20040;-74
2021/10/20 06:55:04;;;;;;;7.72;5.00;;;15.90;99.90;;;;;;5067688;28;20119;-71
2021/10/20 06:57:30;;;;;;;11.80;5.20;;;15.90;99.90;;;;;;5109951;28;20075;-72
2021/10/20 06:59:57;;;;;;;9.68;4.57;;;15.90;99.90;;;;;;5073065;28;20047;-71
2021/10/20 07:02:24;;;;;;;7.80;5.00;;;15.90;99.90;;;;;;5083676;28;20062;-69
2021/10/20 07:04:51;;;;;;;10.82;4.30;;;15.90;99.90;;;;;;5083684;28;20052;-71
2021/10/20 07:07:18;;;;;;;11.57;5.53;;;15.90;99.90;;;;;;5084526;28;20079;-70
2021/10/20 07:09:45;;;;;;;10.32;4.40;;;16.00;99.90;;;;;;5077171;28;20068;-70
2021/10/20 07:12:12;;;;;;;14.20;5.63;;;16.00;99.90;;;;;;5075631;28;20107;-70
2021/10/20 07:14:39;;;;;;;14.95;5.03;;;16.00;99.90;;;;;;5078752;28;20050;-70
2021/10/20 07:17:09;;;;;;;9.88;4.47;;;16.00;99.90;;;;;;5068385;28;20041;-70
2021/10/20 07:19:38;;;;;;;;;;;16.00;99.90;;;;;;5073839;28;20044;-70
2021/10/20 07:22:05;;;;;;;;;;;16.00;99.90;;;;;;5069244;28;19924;-70
2021/10/20 07:24:32;;;;;;;11.38;6.30;;;16.00;99.90;;;;;;5088510;28;19920;-70
2021/10/20 07:27:00;;;;;;;9.95;5.10;;;16.00;99.90;;;;;;5085111;28;20054;-70
2021/10/20 07:29:27;;;;;;;8.85;4.65;;;16.00;99.90;;;;;;5081692;28;20064;-70
2021/10/20 07:31:54;;;;;;;10.32;5.88;;;16.00;99.90;;;;;;5069171;28;20446;-70
2021/10/20 07:34:20;;;;;;;13.48;5.75;;;16.00;99.90;;;;;;5066888;28;20091;-69
2021/10/20 07:36:48;;;;;;;10.20;5.15;;;15.90;99.90;;;;;;5074670;28;20076;-70
2021/10/20 07:39:15;;;;;;;14.23;6.32;;;15.90;99.90;;;;;;5082639;28;20555;-70
2021/10/20 07:41:42;;;;;;;16.00;8.30;;;15.90;99.90;;;;;;5081222;28;20127;-69
2021/10/20 07:44:09;;;;;;;13.15;6.32;;;15.90;99.90;;;;;;5080887;28;20115;-71
2021/10/20 07:46:35;;;;;;;10.70;5.50;;;16.00;99.90;;;;;;5079560;28;20040;-72
2021/10/20 07:49:04;;;;;;;13.82;6.30;;;16.00;99.90;;;;;;5086698;28;20040;-71
2021/10/20 07:51:32;;;;;;;13.68;6.82;;;16.00;99.90;;;;;;5084182;28;20074;-72
2021/10/20 07:53:59;;;;;;;14.57;5.85;;;15.90;99.90;;;;;;5087910;28;20175;-72
2021/10/20 07:56:32;;;;;;;11.32;5.05;;;15.90;99.90;;;;;;5087157;28;20036;-68
2021/10/20 07:59:02;;;;;;;12.30;5.22;;;15.90;99.90;;;;;;5085902;28;20135;-71
2021/10/20 08:01:29;;;;;;;15.70;5.40;;;15.90;99.90;;;;;;5071552;28;20051;-70
2021/10/20 08:03:57;;;;;;;12.63;4.78;;;15.80;99.60;;;;;;5090374;28;20495;-70
2021/10/20 08:06:24;;;;;;;18.80;5.05;;;15.80;99.80;;;;;;5088898;28;20407;-69
2021/10/20 08:08:51;;;;;;;10.48;4.50;;;15.80;99.90;;;;;;5089527;28;20131;-70
2021/10/20 08:11:18;;;;;;;13.35;5.13;;;15.80;99.90;;;;;;5056124;28;20091;-71
2021/10/20 08:13:46;;;;;;;12.68;4.75;;;15.80;99.80;;;;;;5089239;28;20080;-69
2021/10/20 08:16:13;;;;;;;13.70;4.90;;;15.80;99.40;;;;;;5090052;28;20061;-71
2021/10/20 08:18:40;;;;;;;11.57;4.88;;;15.80;99.70;;;;;;5089317;28;20078;-71
2021/10/20 08:21:07;;;;;;;11.40;5.63;;;15.80;99.60;;;;;;5090753;28;20075;-71
2021/10/20 08:23:34;;;;;;;17.65;5.90;;;15.80;99.90;;;;;;5091727;28;20511;-70
2021/10/20 08:26:02;;;;;;;11.77;4.97;;;15.80;99.80;;;;;;5089042;28;20388;-68
2021/10/20 08:28:29;;;;;;;15.38;5.70;;;15.80;99.90;;;;;;5097936;28;20083;-69
2021/10/20 08:30:56;;;;;;;17.67;5.45;;;15.80;99.70;;;;;;5089464;28;20072;-70
2021/10/20 08:33:37;;;;;;;10.77;4.38;;;15.80;99.30;;;;;;5074715;28;20352;-70
2021/10/20 08:36:04;;;;;;;16.08;5.75;;;15.90;99.70;;;;;;5094886;28;20047;-70
2021/10/20 08:38:31;;;;;;;14.38;4.85;;;15.90;99.80;;;;;;5088894;28;20377;-71
2021/10/20 08:40:58;;;;;;;11.43;4.38;;;15.90;99.50;;;;;;5089374;28;20510;-69
2021/10/20 08:43:25;;;;;;;13.43;4.63;;;15.90;98.80;;;;;;5088348;28;20087;-69
2021/10/20 08:45:54;;;;;;;14.77;4.90;;;15.90;99.30;;;;;;5087867;28;20494;-70
2021/10/20 08:48:22;;;;;;;12.75;4.60;;;16.00;98.90;;;;;;5093911;28;20048;-69
2021/10/20 08:50:54;;;;;;;16.63;5.40;;;16.00;99.40;;;;;;5076687;28;20056;-82
2021/10/20 08:53:22;;;;;;;15.48;5.18;;;16.00;98.70;;;;;;5093868;28;20074;-69
2021/10/20 08:55:50;;;;;;;15.38;5.03;;;16.10;98.90;;;;;;5099511;28;20063;-71
2021/10/20 08:58:17;;;;;;;13.02;5.18;;;16.10;98.20;;;;;;5100059;28;20048;-71
2021/10/20 09:00:44;;;;;;;15.77;5.85;;;16.10;99.00;;;;;;5092339;28;20099;-73
2021/10/20 09:03:12;;;;;;;17.25;4.93;;;16.10;99.10;;;;;;5059391;28;20048;-70
2021/10/20 09:05:39;;;;;;;12.02;4.57;;;16.20;98.80;;;;;;5091598;28;20101;-70
2021/10/20 09:08:06;;;;;;;17.25;4.93;;;16.20;99.00;;;;;;5088815;28;20044;-69
2021/10/20 09:10:33;;;;;;;13.55;4.22;;;16.20;98.40;;;;;;5088706;28;20492;-69
2021/10/20 09:13:00;;;;;;;16.58;5.45;;;16.20;98.10;;;;;;5069605;28;20183;-70
2021/10/20 09:15:32;;;;;;;11.68;4.97;;;16.30;99.00;;;;;;5072476;28;20076;-71
2021/10/20 09:18:03;;;;;;;11.68;4.28;;;16.30;98.70;;;;;;5090901;28;20040;-70
2021/10/20 09:20:41;;;;;;;16.98;6.32;;;16.30;99.40;;;;;;5093545;28;20068;-73
2021/10/20 09:23:10;;;;;;;16.83;5.68;;;16.30;98.80;;;;;;5092645;28;20048;-77
2021/10/20 09:25:58;;;;;;;16.98;5.88;;;16.30;98.70;;;;;;5070204;28;20080;-81
2021/10/20 09:28:33;;;;;;;13.40;5.07;;;16.40;98.60;;;;;;5101692;28;20076;-77
2021/10/20 09:31:13;;;;;;;16.15;7.15;;;16.50;97.80;;;;;;5087371;28;20064;-75
2021/10/20 09:33:41;;;;;;;15.07;5.00;;;16.50;98.20;;;;;;5075041;28;20058;-74
2021/10/20 09:36:17;;;;;;;17.35;4.65;;;16.50;98.20;;;;;;5075341;28;20058;-80
2021/10/20 09:38:48;;;;;;;19.10;7.05;;;16.50;97.20;;;;;;5091791;28;20047;-80
2021/10/20 09:41:16;;;;;;;15.43;4.75;;;16.40;97.60;;;;;;5089928;28;20128;-76
2021/10/20 09:43:53;;;;;;;18.25;5.85;;;16.40;97.50;;;;;;5091954;28;20056;-75
2021/10/20 09:46:37;;;;;;;16.15;4.95;;;16.50;98.00;;;;;;5093331;28;20094;-81
2021/10/20 09:49:13;;;;;;;17.75;5.78;;;16.50;97.30;;;;;;5095852;28;20040;-78
2021/10/20 09:51:40;;;;;;;23.65;6.78;;;16.50;97.70;;;;;;5101254;28;20097;-77
2021/10/20 09:54:24;;;;;;;19.98;5.88;;;16.50;97.90;;;;;;5092346;28;20055;-76
2021/10/20 09:56:56;;;;;;;;;;;16.60;97.00;;;;;;5085201;28;20169;-78
2021/10/20 09:59:24;;;;;;;15.70;5.13;;;16.60;97.40;;;;;;5075478;28;20086;-70
2021/10/20 10:01:51;;;;;;;18.70;5.68;;;16.60;97.60;;;;;;5074312;28;20130;-70
2021/10/20 10:04:19;;;;;;;14.98;4.47;;;16.60;97.00;;;;;;5074563;28;20067;-70
2021/10/20 10:06:48;;;;;;;14.75;5.00;;;16.50;96.90;;;;;;5091324;28;20129;-68
2021/10/20 10:09:30;;;;;;;18.10;5.53;;;16.40;96.90;;;;;;5090986;28;20064;-70
2021/10/20 10:12:17;;;;;;;15.32;5.47;;;16.40;96.10;;;;;;5091035;28;20097;-71
2021/10/20 10:14:50;;;;;;;21.75;6.85;;;16.40;97.00;;;;;;5071025;28;20084;-70
2021/10/20 10:17:31;;;;;;;14.15;4.95;;;16.50;96.90;;;;;;5074781;28;20084;-70
2021/10/20 10:20:09;;;;;;;17.90;5.00;;;16.60;97.30;;;;;;5094061;28;20127;-69
2021/10/20 10:22:47;;;;;;;14.35;5.15;;;16.70;97.50;;;;;;5092991;28;20044;-68
2021/10/20 10:25:14;;;;;;;20.48;5.25;;;16.70;97.00;;;;;;5106950;28;20054;-69
2021/10/20 10:28:03;;;;;;;18.95;5.25;;;16.70;96.10;;;;;;5106023;28;20043;-69
2021/10/20 10:30:32;;;;;;;18.13;5.75;;;16.70;96.30;;;;;;5076678;28;20471;-70
2021/10/20 10:33:00;;;;;;;19.73;5.10;;;16.80;95.90;;;;;;5057367;28;20056;-70
2021/10/20 10:35:32;;;;;;;19.27;5.78;;;16.80;95.60;;;;;;5091238;28;20074;-69
2021/10/20 10:38:04;;;;;;;24.35;5.32;;;16.80;95.30;;;;;;5061125;28;20507;-74
2021/10/20 10:40:32;;;;;;;20.88;5.60;;;16.90;95.20;;;;;;5072536;28;20094;-75
2021/10/20 10:43:07;;;;;;;15.67;4.93;;;16.90;95.50;;;;;;5089394;28;20071;-75
2021/10/20 10:45:34;;;;;;;467.90;387.80;;;16.90;95.10;;;;;;5095586;28;20040;-77
2021/10/20 10:48:08;;;;;;;25.48;10.63;;;16.90;94.40;;;;;;5090690;28;20113;-69
2021/10/20 10:50:47;;;;;;;19.23;5.88;;;16.90;94.30;;;;;;5092324;28;20052;-74
2021/10/20 10:53:30;;;;;;;;;;;16.90;94.00;;;;;;5090988;28;20086;-74
2021/10/20 10:56:04;;;;;;;19.15;5.50;;;16.90;94.10;;;;;;5092344;28;20335;-77
2021/10/20 10:58:52;;;;;;;18.48;5.38;;;16.80;93.50;;;;;;5088069;28;20175;-73
2021/10/20 11:01:38;;;;;;;18.40;5.43;;;16.70;93.40;;;;;;5086507;28;20044;-78
2021/10/20 11:04:19;;;;;;;22.85;4.85;;;16.70;93.60;;;;;;5091207;28;20395;-77
2021/10/20 11:06:50;;;;;;;17.67;5.22;;;16.90;93.40;;;;;;5088998;28;20052;-76
2021/10/20 11:12:59;;;;;;;18.40;5.53;;;17.10;93.30;;;;;;5083684;28;20042;-78
2021/10/20 11:15:48;;;;;;;15.98;4.72;;;17.00;92.80;;;;;;5080279;28;20097;-69
2021/10/20 11:18:14;;;;;;;25.75;12.98;;;17.00;93.10;;;;;;5081580;28;20062;-67
2021/10/20 11:20:46;;;;;;;20.95;8.00;;;17.10;93.50;;;;;;5070886;28;20048;-68
2021/10/20 11:23:27;;;;;;;15.95;6.30;;;17.20;92.90;;;;;;5089395;28;20175;-67
2021/10/20 11:25:58;;;;;;;20.00;5.22;;;17.30;92.80;;;;;;5070843;28;20047;-68
2021/10/20 11:28:25;;;;;;;18.83;4.72;;;17.40;92.50;;;;;;5070608;28;20054;-68
2021/10/20 11:30:52;;;;;;;18.85;5.05;;;17.30;91.90;;;;;;5085810;28;20036;-68
2021/10/20 11:33:19;;;;;;;15.60;5.40;;;17.30;91.90;;;;;;5087378;28;20055;-68
2021/10/20 11:35:47;;;;;;;17.02;5.00;;;17.20;92.40;;;;;;5088131;28;20044;-67
2021/10/20 11:38:16;;;;;;;16.88;5.32;;;17.10;93.90;;;;;;5087693;28;20487;-68
2021/10/20 11:40:44;;;;;;;;;;;17.00;94.10;;;;;;5087658;28;20402;-74
2021/10/20 11:43:15;;;;;;;18.00;5.68;;;16.80;94.30;;;;;;5087104;28;19920;-68
2021/10/20 11:45:42;;;;;;;20.08;5.75;;;16.70;95.00;;;;;;5088814;28;20073;-68
2021/10/20 11:48:09;;;;;;;15.65;4.35;;;16.50;94.40;;;;;;5088547;28;20126;-68
2021/10/20 11:50:37;;;;;;;16.95;3.65;;;16.40;95.00;;;;;;5088463;28;20051;-68
2021/10/20 11:53:07;;;;;;;21.15;5.00;;;16.40;94.90;;;;;;5070282;28;20071;-67
2021/10/20 11:55:41;;;;;;;20.45;6.25;;;16.40;94.30;;;;;;5071101;28;20176;-68
2021/10/20 11:58:25;;;;;;;22.77;5.93;;;16.30;94.20;;;;;;5079826;28;20040;-67
2021/10/20 12:00:53;;;;;;;16.00;5.45;;;16.30;95.30;;;;;;5086674;28;20564;-68
2021/10/20 12:03:20;;;;;;;15.38;4.20;;;16.30;94.80;;;;;;5070235;28;20056;-67
2021/10/20 12:05:48;;;;;;;18.48;4.20;;;16.30;94.00;;;;;;5070142;28;20349;-75
2021/10/20 12:08:16;;;;;;;20.58;4.47;;;16.30;93.60;;;;;;5070240;28;20066;-80
2021/10/20 12:10:44;;;;;;;19.27;4.82;;;16.30;92.70;;;;;;5067882;28;20052;-75
2021/10/20 12:13:23;;;;;;;13.10;4.45;;;16.40;92.80;;;;;;5086460;28;20075;-74
2021/10/20 12:15:51;;;;;;;35.05;21.40;;;16.40;92.00;;;;;;5087267;28;20097;-77
2021/10/20 12:18:18;;;;;;;130.02;108.35;;;16.50;91.90;;;;;;5067292;28;20051;-70
2021/10/20 12:20:50;;;;;;;19.40;6.93;;;16.50;91.70;;;;;;5082219;28;20048;-76
2021/10/20 12:23:17;;;;;;;11.23;3.40;;;16.60;90.80;;;;;;5086993;28;20057;-76
2021/10/20 12:25:44;;;;;;;12.50;3.78;;;16.90;90.30;;;;;;5070276;28;20139;-77
2021/10/20 12:28:12;;;;;;;15.57;3.50;;;16.80;87.80;;;;;;5071093;28;20064;-77
2021/10/20 12:30:40;;;;;;;12.10;3.50;;;16.70;89.00;;;;;;5068075;28;20063;-78
2021/10/20 12:33:12;;;;;;;7.13;2.20;;;16.70;86.20;;;;;;5086247;28;20079;-76
2021/10/20 12:35:45;;;;;;;10.18;3.28;;;16.70;85.30;;;;;;5072322;28;20109;-74
2021/10/20 12:38:16;;;;;;;11.95;3.28;;;16.70;85.70;;;;;;5069689;28;20075;-73
2021/10/20 12:40:45;;;;;;;12.38;3.85;;;16.80;86.00;;;;;;5072743;28;20048;-74
2021/10/20 12:43:15;;;;;;;13.52;2.80;;;16.90;85.50;;;;;;5090043;28;20052;-73
2021/10/20 12:45:47;;;;;;;10.15;2.85;;;17.10;84.50;;;;;;5100479;28;20048;-75
2021/10/20 12:48:14;;;;;;;12.90;2.80;;;17.30;83.50;;;;;;5070880;28;20086;-76